Weather History for Ainsworth, NE

Change the Weather History Date:

Monday, May 6, 2013

  Actual Average Record
Temperature  
Mean Temperature 54 °F -  
Max Temperature 72 °F 63 °F 75 °F (1997)
Min Temperature 35 °F 41 °F 35 °F (2013)
Degree Days  
Heating Degree Days 12    
Growing Degree Days 4 (Base 50)    
Moisture  
Dew Point 27 °F    
Average Humidity 46    
Maximum Humidity 92    
Minimum Humidity 11    
Precipitation  
Precipitation 0.00 in - - ()
Sea Level Pressure  
Sea Level Pressure 30.08 in    
Wind  
Wind Speed 5 mph (South)    
Max Wind Speed 10 mph    
Max Gust Speed 16 mph    
Visibility 10 miles    
Events      
Averages and records for this station are not official NWS values.
T = Trace of Precipitation, MM = Missing Value Source: NWS Daily Summary

Daily Weather History Graph

Daily Weather History Graph

Search for Another Location

Airport:

Trip Planner

Search our weather history database for the weather conditions in past years. The results will help you decide how hot, cold, wet, or windy it might be!

Date:

Astronomy

May. 06, 2013 Rise Set
Actual Time 6:27 AM CDT 8:45 PM CDT
Civil Twilight 5:56 AM CDT 9:17 PM CDT
Nautical Twilight 5:17 AM CDT 9:56 PM CDT
Astronomical Twilight 4:34 AM CDT 10:39 PM CDT
Moon 4:34 AM CDT (5/6) 5:44 PM CDT (5/6)
Length of Visible Light 15h 20m
Length of Day
14h 18m
Waning Crescent, 11% of the Moon is Illuminated
May 6
Waning Crescent
May 9
New
May 17
First Quarter
May 24
Full
May 31
Last Quarter

Hourly Weather History & Observations

Time (CDT) Temp. Windchill Dew Point Humidity Pressure Visibility Wind Dir Wind Speed Gust Speed Precip Events Conditions
12:15 AM 39.9 °F 36.7 °F 31.6 °F 72% 30.14 in 10.0 mi SE 4.6 mph - N/A   Clear
12:35 AM 39.4 °F 35.2 °F 31.8 °F 74% 30.14 in 10.0 mi SSE 5.8 mph - N/A   Clear
12:55 AM 39.0 °F 35.7 °F 32.0 °F 76% 30.14 in 10.0 mi SE 4.6 mph - N/A   Clear
1:15 AM 37.8 °F 35.3 °F 32.0 °F 80% 30.15 in 10.0 mi SSE 3.5 mph - N/A   Clear
1:35 AM 36.7 °F 32.9 °F 32.0 °F 83% 30.15 in 10.0 mi South 4.6 mph - N/A   Clear
1:55 AM 35.6 °F 30.7 °F 31.6 °F 85% 30.14 in 10.0 mi South 5.8 mph - N/A   Clear
2:15 AM 35.8 °F 30.1 °F 32.5 °F 88% 30.14 in 10.0 mi South 6.9 mph - N/A   Clear
2:35 AM 35.6 °F 29.9 °F 32.2 °F 87% 30.14 in 10.0 mi South 6.9 mph - N/A   Clear
2:55 AM 35.4 °F 29.7 °F 32.7 °F 90% 30.14 in 10.0 mi South 6.9 mph - N/A   Clear
3:15 AM 37.0 °F 32.4 °F 34.7 °F 91% 30.14 in 10.0 mi South 5.8 mph - N/A   Clear
3:35 AM 36.3 °F 32.5 °F 33.6 °F 90% 30.13 in 10.0 mi South 4.6 mph - N/A   Clear
3:55 AM 35.2 °F 32.4 °F 32.7 °F 91% 30.13 in 10.0 mi South 3.5 mph - N/A   Clear
4:15 AM 36.0 °F 30.3 °F 33.4 °F 91% 30.12 in 10.0 mi SSW 6.9 mph - N/A   Clear
4:35 AM 36.7 °F 32.0 °F 33.8 °F 89% 30.12 in 10.0 mi SSW 5.8 mph - N/A   Clear
4:55 AM 38.3 °F 34.8 °F 34.9 °F 87% 30.13 in 10.0 mi SSW 4.6 mph - N/A   Clear
5:15 AM 36.7 °F 31.2 °F 33.8 °F 89% 30.12 in 10.0 mi SSW 6.9 mph - N/A   Clear
5:35 AM 37.4 °F 32.8 °F 34.7 °F 90% 30.12 in 10.0 mi SSW 5.8 mph - N/A   Clear
5:55 AM 37.4 °F 32.8 °F 34.9 °F 91% 30.12 in 10.0 mi SSW 5.8 mph - N/A   Clear
6:15 AM 38.3 °F 33.2 °F 35.2 °F 89% 30.12 in 10.0 mi SSW 6.9 mph - N/A   Clear
6:35 AM 35.1 °F 30.1 °F 32.7 °F 91% 30.12 in 10.0 mi SSW 5.8 mph - N/A   Clear
6:55 AM 37.0 °F 32.4 °F 34.9 °F 92% 30.12 in 10.0 mi SSW 5.8 mph - N/A   Clear
7:15 AM 38.7 °F 34.3 °F 36.5 °F 92% 30.12 in 10.0 mi South 5.8 mph - N/A   Clear
7:35 AM 42.6 °F 38.4 °F 40.1 °F 91% 30.12 in 10.0 mi SSW 6.9 mph - N/A   Clear
7:55 AM 44.6 °F 40.7 °F 40.6 °F 86% 30.12 in 10.0 mi SSW 6.9 mph - N/A   Clear
8:15 AM 46.9 °F - 41.0 °F 80% 30.13 in 10.0 mi SSW 5.8 mph - N/A   Clear
8:35 AM 49.8 °F - 41.0 °F 72% 30.13 in 10.0 mi SSW 8.1 mph - N/A   Clear
8:55 AM 51.8 °F - 40.3 °F 65% 30.13 in 10.0 mi SW 6.9 mph - N/A   Clear
9:15 AM 54.5 °F - 37.8 °F 53% 30.14 in 10.0 mi SW 6.9 mph - N/A   Clear
9:35 AM 56.5 °F - 35.8 °F 46% 30.13 in 10.0 mi SW 5.8 mph - N/A   Clear
9:55 AM 58.6 °F - 32.5 °F 37% 30.13 in 10.0 mi WSW 4.6 mph - N/A   Clear
10:15 AM 60.4 °F - 27.3 °F 28% 30.12 in 10.0 mi SSW 3.5 mph - N/A   Clear
10:35 AM 61.0 °F - 23.7 °F 24% 30.12 in 10.0 mi Calm Calm - N/A   Clear
10:55 AM 62.2 °F - 20.5 °F 20% 30.12 in 10.0 mi Calm Calm - N/A   Clear
11:15 AM 63.1 °F - 18.3 °F 18% 30.12 in 10.0 mi SSW 5.8 mph - N/A   Clear
11:35 AM 63.7 °F - 18.3 °F 17% 30.12 in 10.0 mi South 5.8 mph - N/A   Clear
11:55 AM 64.6 °F - 15.6 °F 15% 30.11 in 10.0 mi SSE 4.6 mph - N/A   Clear
12:15 PM 65.1 °F - 16.2 °F 15% 30.11 in 10.0 mi WSW 6.9 mph - N/A   Clear
12:35 PM 66.7 °F - 16.9 °F 15% 30.10 in 10.0 mi West 9.2 mph - N/A   Clear
12:55 PM 66.7 °F - 17.2 °F 15% 30.10 in 10.0 mi SSW 3.5 mph - N/A   Clear
1:15 PM 67.8 °F - 17.4 °F 15% 30.09 in 10.0 mi SSW 5.8 mph - N/A   Clear
1:35 PM 66.9 °F - 16.3 °F 14% 30.08 in 10.0 mi SW 3.5 mph - N/A   Clear
1:55 PM 67.5 °F - 15.4 °F 14% 30.08 in 10.0 mi Calm Calm - N/A   Clear
2:15 PM 68.2 °F - 15.1 °F 13% 30.07 in 10.0 mi Calm Calm - N/A   Clear
2:35 PM 68.9 °F - 14.9 °F 13% 30.06 in 10.0 mi SSW 3.5 mph - N/A   Clear
2:55 PM 69.8 °F - 15.8 °F 13% 30.06 in 10.0 mi WNW 6.9 mph - N/A   Clear
3:15 PM 70.7 °F - 14.7 °F 12% 30.05 in 10.0 mi West 3.5 mph 16.1 mph N/A   Clear
3:35 PM 70.2 °F - 13.5 °F 11% 30.04 in 10.0 mi East 4.6 mph - N/A   Clear
3:55 PM 71.6 °F - 14.7 °F 11% 30.03 in 10.0 mi SW 9.2 mph - N/A   Clear
4:15 PM 71.1 °F - 14.5 °F 11% 30.02 in 10.0 mi East 3.5 mph - N/A   Clear
4:35 PM 72.0 °F - 13.6 °F 11% 30.02 in 10.0 mi Calm Calm - N/A   Clear
4:55 PM 71.6 °F - 14.0 °F 11% 30.01 in 10.0 mi SSW 3.5 mph - N/A   Clear
5:15 PM 72.5 °F - 14.4 °F 11% 30.00 in 10.0 mi South 6.9 mph - N/A   Clear
5:35 PM 71.6 °F - 14.0 °F 11% 30.00 in 10.0 mi SSW 3.5 mph - N/A   Clear
5:55 PM 71.6 °F - 14.7 °F 11% 29.99 in 10.0 mi East 3.5 mph - N/A   Clear
6:15 PM 71.4 °F - 14.5 °F 11% 29.99 in 10.0 mi Calm Calm - N/A   Clear
6:35 PM 72.0 °F - 15.4 °F 12% 29.99 in 10.0 mi SSE 4.6 mph - N/A   Clear
6:55 PM 71.6 °F - 15.6 °F 12% 29.99 in 10.0 mi ESE 3.5 mph - N/A   Clear
7:15 PM 70.0 °F - 17.6 °F 14% 29.99 in 10.0 mi ESE 5.8 mph - N/A   Clear
7:35 PM 67.8 °F - 23.0 °F 18% 29.99 in 10.0 mi SE 5.8 mph - N/A   Scattered Clouds
7:55 PM 64.6 °F - 25.7 °F 23% 29.99 in 10.0 mi ESE 6.9 mph - N/A   Scattered Clouds
8:15 PM 63.3 °F - 27.5 °F 26% 29.99 in 10.0 mi ENE 6.9 mph - N/A   Clear
8:35 PM 62.4 °F - 25.9 °F 25% 30.00 in 10.0 mi East 6.9 mph - N/A   Clear
8:55 PM 60.3 °F - 27.0 °F 28% 30.00 in 10.0 mi ENE 3.5 mph - N/A   Clear
9:15 PM 59.4 °F - 27.9 °F 30% 30.01 in 10.0 mi NE 10.4 mph - N/A   Clear
9:35 PM 56.8 °F - 29.5 °F 35% 30.01 in 10.0 mi NE 9.2 mph - N/A   Clear
9:55 PM 55.8 °F - 29.8 °F 37% 30.01 in 10.0 mi NE 4.6 mph - N/A   Clear
10:15 PM 55.2 °F - 31.1 °F 40% 30.01 in 10.0 mi East 4.6 mph - N/A   Clear
10:35 PM 57.0 °F - 31.5 °F 38% 30.01 in 10.0 mi East 4.6 mph - N/A   Clear
10:55 PM 53.8 °F - 32.2 °F 44% 30.01 in 10.0 mi SE 4.6 mph - N/A   Clear
11:15 PM 54.9 °F - 34.5 °F 46% 30.01 in 10.0 mi SSE 8.1 mph - N/A   Clear
11:35 PM 53.2 °F - 35.6 °F 51% 30.01 in 10.0 mi SSE 6.9 mph - N/A   Clear
11:55 PM 51.8 °F - 36.1 °F 55% 30.00 in 10.0 mi SSE 6.9 mph - N/A   Clear